createdAt,value
2023-04-02T00:01:28.462Z,96835.00
2023-04-02T00:03:30.049Z,96844.97
2023-04-02T00:05:31.633Z,96843.78
2023-04-02T00:07:33.734Z,96855.28
2023-04-02T00:09:35.108Z,96844.66
2023-04-02T00:11:37.406Z,96863.13
2023-04-02T00:13:38.729Z,96858.53
2023-04-02T00:15:40.425Z,96860.78
2023-04-02T00:17:41.756Z,96873.31
2023-04-02T00:19:43.143Z,96871.47
2023-04-02T00:21:44.496Z,96870.38
2023-04-02T00:23:45.812Z,96871.09
2023-04-02T00:25:47.326Z,96875.25
2023-04-02T00:27:48.635Z,96878.56
2023-04-02T00:29:49.992Z,96874.16
2023-04-02T00:31:51.452Z,96879.28
2023-04-02T00:33:52.851Z,96879.13
2023-04-02T00:35:54.189Z,96878.31
2023-04-02T00:37:55.564Z,96892.72
2023-04-02T00:39:57.255Z,96882.38
2023-04-02T00:42:07.746Z,96892.72
2023-04-02T00:44:09.655Z,96903.91
2023-04-02T00:46:14.200Z,96900.72
2023-04-02T00:48:15.897Z,96908.47
2023-04-02T00:50:17.205Z,96908.59
2023-04-02T00:52:18.570Z,96909.47
2023-04-02T00:54:20.563Z,96914.59
2023-04-02T00:56:22.112Z,96917.25
2023-04-02T00:58:23.439Z,96919.94
2023-04-02T01:00:26.146Z,96920.22
2023-04-02T01:02:28.202Z,96915.22
2023-04-02T01:04:31.541Z,96794.47
2023-04-02T01:06:34.221Z,96936.78
2023-04-02T01:08:35.834Z,96934.50
2023-04-02T01:10:37.124Z,96937.22
2023-04-02T01:12:38.421Z,96946.75
2023-04-02T01:14:39.759Z,96944.31
2023-04-02T01:16:42.277Z,96941.75
2023-04-02T01:18:46.346Z,96946.97
2023-04-02T01:20:47.814Z,96951.34
2023-04-02T01:22:49.106Z,96955.59
2023-04-02T01:24:50.428Z,96963.34
2023-04-02T01:26:52.447Z,96956.63
2023-04-02T01:28:53.780Z,96961.78
2023-04-02T01:30:55.319Z,96968.56
2023-04-02T01:32:56.690Z,96976.34
2023-04-02T01:34:58.377Z,96967.16
2023-04-02T01:36:59.754Z,96968.03
2023-04-02T01:39:02.231Z,96972.19
2023-04-02T01:41:03.857Z,96983.22
2023-04-02T01:43:05.450Z,96975.63
2023-04-02T01:45:07.094Z,96984.94
2023-04-02T01:47:08.499Z,96985.81
2023-04-02T01:49:09.839Z,96991.72
2023-04-02T01:51:11.127Z,97000.16
2023-04-02T01:53:12.481Z,96999.28
2023-04-02T01:55:14.163Z,97006.78
2023-04-02T01:57:15.518Z,97010.06
2023-04-02T01:59:16.873Z,97008.16
2023-04-02T02:01:18.498Z,97013.84
2023-04-02T02:03:20.108Z,96893.13
2023-04-02T02:05:22.706Z,97011.81
2023-04-02T02:07:24.223Z,97021.81
2023-04-02T02:09:26.130Z,97026.78
2023-04-02T02:11:27.594Z,97033.50
2023-04-02T02:13:29.340Z,97027.44
2023-04-02T02:15:31.735Z,97027.38
2023-04-02T02:17:34.812Z,97029.13
2023-04-02T02:19:36.408Z,97031.59
2023-04-02T02:21:37.704Z,97037.59
2023-04-02T02:23:39.036Z,97044.56
2023-04-02T02:25:40.465Z,97043.72
2023-04-02T02:27:41.811Z,97044.72
2023-04-02T02:29:43.122Z,97049.19
2023-04-02T02:31:44.843Z,97054.47
2023-04-02T02:33:46.232Z,97056.84
2023-04-02T02:35:47.543Z,97064.25
2023-04-02T02:37:48.884Z,97061.72
2023-04-02T02:39:50.371Z,97064.41
2023-04-02T02:41:51.663Z,97064.41
2023-04-02T02:43:52.972Z,97059.47
2023-04-02T02:45:54.301Z,97065.53
2023-04-02T02:47:55.759Z,97077.53
2023-04-02T02:49:58.922Z,97071.69
2023-04-02T02:52:00.588Z,97075.09
2023-04-02T02:54:01.884Z,97082.75
2023-04-02T02:56:03.193Z,97080.31
2023-04-02T02:58:04.621Z,97090.56
2023-04-02T03:00:06.886Z,97089.81
2023-04-02T03:02:08.270Z,97095.81
2023-04-02T03:04:09.830Z,97104.41
2023-04-02T03:06:12.018Z,97099.34
2023-04-02T03:08:13.316Z,97101.16
2023-04-02T03:10:14.648Z,97103.72
2023-04-02T03:12:15.933Z,97108.81
2023-04-02T03:14:17.242Z,97116.47
2023-04-02T03:16:18.703Z,97120.75
2023-04-02T03:18:20.076Z,97116.47
2023-04-02T03:20:21.401Z,97124.97
2023-04-02T03:22:22.835Z,97121.56
2023-04-02T03:24:24.131Z,97140.22
2023-04-02T03:26:25.620Z,97131.59
2023-04-02T03:28:26.940Z,97140.84
2023-04-02T03:30:28.277Z,97147.44
2023-04-02T03:32:29.616Z,97009.13
2023-04-02T03:34:32.892Z,97146.22
2023-04-02T03:36:34.255Z,97150.25
2023-04-02T03:38:35.760Z,97156.06
2023-04-02T03:40:37.107Z,97161.03
2023-04-02T03:42:38.404Z,97166.03
2023-04-02T03:44:39.734Z,97179.50
2023-04-02T03:46:41.095Z,97186.28
2023-04-02T03:48:42.439Z,97185.41
2023-04-02T03:50:43.940Z,97189.56
2023-04-02T03:52:45.358Z,97200.66
2023-04-02T03:54:53.791Z,97199.91
2023-04-02T03:56:55.903Z,97199.91
2023-04-02T03:58:57.252Z,97208.53
2023-04-02T04:00:58.553Z,97211.22
2023-04-02T04:02:59.980Z,97222.38
2023-04-02T04:05:02.226Z,97220.00
2023-04-02T04:07:03.523Z,97225.22
2023-04-02T04:09:05.168Z,97222.75
2023-04-02T04:11:06.499Z,97232.16
2023-04-02T04:13:07.904Z,97229.78
2023-04-02T04:15:09.213Z,97240.09
2023-04-02T04:17:13.975Z,97238.38
2023-04-02T04:19:15.304Z,97240.19
2023-04-02T04:21:16.602Z,97248.78
2023-04-02T04:23:17.936Z,97245.47
2023-04-02T04:25:19.228Z,97263.44
2023-04-02T04:27:20.578Z,97256.75
2023-04-02T04:29:21.879Z,97261.94
2023-04-02T04:31:25.952Z,97267.13
2023-04-02T04:33:29.062Z,97271.63
2023-04-02T04:35:31.153Z,97265.88
2023-04-02T04:37:33.602Z,97273.63
2023-04-02T04:39:35.517Z,97284.66
2023-04-02T04:41:36.816Z,97279.56
2023-04-02T04:43:38.157Z,97286.50
2023-04-02T04:45:39.528Z,97292.59
2023-04-02T04:47:40.887Z,97294.41
2023-04-02T04:49:42.210Z,97300.38
2023-04-02T04:51:43.537Z,97305.47
2023-04-02T04:53:44.862Z,97300.47
2023-04-02T04:55:46.172Z,97310.66
2023-04-02T04:57:47.466Z,97313.13
2023-04-02T04:59:48.759Z,97319.81
2023-04-02T05:01:50.215Z,97323.91
2023-04-02T05:03:51.739Z,97327.06
2023-04-02T05:05:53.036Z,97332.75
2023-04-02T05:07:54.359Z,97333.25
2023-04-02T05:09:55.859Z,97335.53
2023-04-02T05:11:57.159Z,97341.22
2023-04-02T05:13:58.497Z,97340.84
2023-04-02T05:16:01.188Z,97345.56
2023-04-02T05:18:02.792Z,97348.78
2023-04-02T05:20:09.664Z,97352.03
2023-04-02T05:22:11.434Z,97242.19
2023-04-02T05:24:12.759Z,97360.16
2023-04-02T05:26:14.055Z,97360.25
2023-04-02T05:28:15.367Z,97376.47
2023-04-02T05:30:17.115Z,97382.59
2023-04-02T05:32:19.087Z,97375.91
2023-04-02T05:34:20.533Z,97373.44
2023-04-02T05:36:22.074Z,97379.56
2023-04-02T05:38:23.461Z,97394.06
2023-04-02T05:40:24.878Z,97393.31
2023-04-02T05:42:26.197Z,97396.03
2023-04-02T05:44:27.693Z,97398.75
2023-04-02T05:46:29.052Z,97401.50
2023-04-02T05:48:30.433Z,97406.78
2023-04-02T05:50:31.919Z,97408.56
2023-04-02T05:52:33.213Z,97408.50
2023-04-02T05:54:34.525Z,97413.66
2023-04-02T05:56:36.142Z,97417.13
2023-04-02T05:58:37.506Z,97422.38
2023-04-02T06:00:39.467Z,97420.63
2023-04-02T06:02:41.745Z,97294.00
2023-04-02T06:04:43.761Z,97422.47
2023-04-02T06:06:45.129Z,97433.66
2023-04-02T06:08:46.466Z,97430.41
2023-04-02T06:10:47.803Z,97435.59
2023-04-02T06:12:49.141Z,97443.41
2023-04-02T06:14:50.487Z,97449.44
2023-04-02T06:16:51.846Z,97454.72
2023-04-02T06:18:53.244Z,97455.72
2023-04-02T06:20:54.591Z,97458.28
2023-04-02T06:22:55.919Z,97460.94
2023-04-02T06:24:57.249Z,97471.25
2023-04-02T06:26:58.596Z,97474.69
2023-04-02T06:28:59.936Z,97474.69
2023-04-02T06:31:10.733Z,97481.38
2023-04-02T06:33:12.170Z,97492.34
2023-04-02T06:35:13.686Z,97492.34
2023-04-02T06:37:15.704Z,97495.75
2023-04-02T06:39:17.004Z,97506.78
2023-04-02T06:41:18.355Z,97513.53
2023-04-02T06:43:19.684Z,97518.53
2023-04-02T06:45:21.091Z,97510.66
2023-04-02T06:47:22.454Z,97513.94
2023-04-02T06:49:23.871Z,97521.41
2023-04-02T06:51:25.509Z,97529.75
2023-04-02T06:53:26.845Z,97531.28
2023-04-02T06:55:28.289Z,97540.34
2023-04-02T06:57:32.780Z,97539.97
2023-04-02T06:59:34.152Z,97545.78
2023-04-02T07:01:35.580Z,97553.34
2023-04-02T07:03:36.946Z,97555.75
2023-04-02T07:05:39.347Z,97558.28
2023-04-02T07:07:41.770Z,97561.72
2023-04-02T07:09:43.183Z,97552.41
2023-04-02T07:11:44.549Z,97561.81
2023-04-02T07:13:46.244Z,97561.81
2023-04-02T07:15:50.553Z,97440.22
2023-04-02T07:17:52.392Z,97566.06
2023-04-02T07:19:53.759Z,97575.50
2023-04-02T07:21:55.050Z,97572.41
2023-04-02T07:23:56.372Z,97572.88
2023-04-02T07:25:58.475Z,97586.31
2023-04-02T07:28:02.258Z,97583.31
2023-04-02T07:30:04.325Z,97591.31
2023-04-02T07:32:05.635Z,97592.53
2023-04-02T07:34:06.959Z,97597.00
2023-04-02T07:36:08.274Z,97598.94
2023-04-02T07:38:09.624Z,97598.25
2023-04-02T07:40:11.901Z,97603.50
2023-04-02T07:42:13.240Z,97602.75
2023-04-02T07:44:15.027Z,97602.88
2023-04-02T07:46:16.827Z,97616.63
2023-04-02T07:48:18.215Z,97615.88
2023-04-02T07:50:19.859Z,97615.13
2023-04-02T07:52:21.757Z,97619.47
2023-04-02T07:54:23.057Z,97621.25
2023-04-02T07:56:27.263Z,97619.63
2023-04-02T07:58:28.608Z,97623.03
2023-04-02T08:00:30.133Z,97630.72
2023-04-02T08:02:31.563Z,97627.34
2023-04-02T08:04:32.969Z,97628.09
2023-04-02T08:06:34.297Z,97642.44
2023-04-02T08:08:35.996Z,97638.94
2023-04-02T08:10:37.399Z,97644.75
2023-04-02T08:12:38.767Z,97648.75
2023-04-02T08:14:40.111Z,97653.50
2023-04-02T08:16:41.447Z,97659.16
2023-04-02T08:18:42.843Z,97669.91
2023-04-02T08:20:44.134Z,97667.09
2023-04-02T08:22:45.734Z,97669.41
2023-04-02T08:24:47.113Z,97667.59
2023-04-02T08:26:48.408Z,97679.38
2023-04-02T08:28:49.753Z,97683.50
2023-04-02T08:30:51.512Z,97686.84
2023-04-02T08:32:52.882Z,97693.88
2023-04-02T08:35:00.408Z,97695.91
2023-04-02T08:37:01.892Z,97692.56
2023-04-02T08:39:04.543Z,97694.63
2023-04-02T08:41:05.899Z,97695.28
2023-04-02T08:43:07.249Z,97694.97
2023-04-02T08:45:23.448Z,97699.75
2023-04-02T08:47:26.651Z,97710.63
2023-04-02T08:49:31.117Z,97707.72
2023-04-02T08:51:32.449Z,97711.31
2023-04-02T08:53:33.765Z,97710.19
2023-04-02T08:55:35.366Z,97713.59
2023-04-02T08:57:39.939Z,97711.63
2023-04-02T08:59:41.259Z,97717.00
2023-04-02T09:01:42.702Z,97714.25
2023-04-02T09:03:44.042Z,97725.94
2023-04-02T09:05:45.379Z,97590.88
2023-04-02T09:07:46.705Z,97730.50
2023-04-02T09:09:48.713Z,97736.94
2023-04-02T09:11:50.098Z,97744.94
2023-04-02T09:13:51.433Z,97745.16
2023-04-02T09:15:52.753Z,97749.00
2023-04-02T09:17:55.017Z,97748.09
2023-04-02T09:19:57.106Z,97753.09
2023-04-02T09:21:58.947Z,97767.88
2023-04-02T09:24:00.588Z,97767.34
2023-04-02T09:26:04.490Z,97771.00
2023-04-02T09:28:09.088Z,97771.13
2023-04-02T09:30:10.699Z,97773.22
2023-04-02T09:32:12.251Z,97783.84
2023-04-02T09:34:13.549Z,97785.06
2023-04-02T09:36:16.121Z,97788.22
2023-04-02T09:38:17.533Z,97787.09
2023-04-02T09:40:18.941Z,97790.97
2023-04-02T09:42:20.349Z,97797.38
2023-04-02T09:44:21.703Z,97809.38
2023-04-02T09:46:23.070Z,97804.31
2023-04-02T09:48:24.503Z,97807.69
2023-04-02T09:50:28.733Z,97815.97
2023-04-02T09:52:30.059Z,97810.91
2023-04-02T09:54:31.399Z,97816.13
2023-04-02T09:56:35.577Z,97818.78
2023-04-02T09:58:36.925Z,97822.53
2023-04-02T10:00:38.255Z,97825.16
2023-04-02T10:02:39.589Z,97835.25
2023-04-02T10:04:45.120Z,97829.09
2023-04-02T10:06:47.057Z,97831.06
2023-04-02T10:08:48.603Z,97842.63
2023-04-02T10:10:51.094Z,97854.75
2023-04-02T10:12:54.037Z,97849.53
2023-04-02T10:14:55.541Z,97849.56
2023-04-02T10:16:56.951Z,97845.38
2023-04-02T10:19:01.235Z,97694.44
2023-04-02T10:21:02.563Z,97841.38
2023-04-02T10:23:06.615Z,97848.25
2023-04-02T10:25:07.947Z,97845.66
2023-04-02T10:27:09.969Z,97855.44
2023-04-02T10:29:13.993Z,97860.97
2023-04-02T10:31:17.363Z,97856.03
2023-04-02T10:33:20.153Z,97857.78
2023-04-02T10:35:21.532Z,97858.50
2023-04-02T10:37:22.872Z,97860.50
2023-04-02T10:39:24.227Z,97858.00
2023-04-02T10:41:25.565Z,97868.72
2023-04-02T10:43:26.928Z,97868.16
2023-04-02T10:45:28.232Z,97860.91
2023-04-02T10:47:31.069Z,97870.44
2023-04-02T10:49:32.571Z,97876.22
2023-04-02T10:51:34.065Z,97879.09
2023-04-02T10:53:35.414Z,97880.63
2023-04-02T10:55:39.742Z,97892.66
2023-04-02T10:57:41.328Z,97895.81
2023-04-02T10:59:42.859Z,97895.44
2023-04-02T11:01:44.214Z,97904.94
2023-04-02T11:03:45.693Z,97901.34
2023-04-02T11:05:47.187Z,97905.28
2023-04-02T11:07:48.488Z,97907.63
2023-04-02T11:09:50.027Z,97910.19
2023-04-02T11:11:51.418Z,97914.31
2023-04-02T11:13:52.746Z,97918.59
2023-04-02T11:15:57.165Z,97926.81
2023-04-02T11:18:02.223Z,97922.97
2023-04-02T11:20:03.975Z,97923.97
2023-04-02T11:22:06.866Z,97932.69
2023-04-02T11:24:08.339Z,97923.03
2023-04-02T11:26:09.682Z,97933.59
2023-04-02T11:28:13.642Z,97941.91
2023-04-02T11:30:15.913Z,97951.84
2023-04-02T11:32:20.036Z,97946.25
2023-04-02T11:34:21.371Z,97956.47
2023-04-02T11:36:22.685Z,97953.97
2023-04-02T11:38:24.125Z,97960.13
2023-04-02T11:40:28.596Z,97962.88
2023-04-02T11:42:29.955Z,97962.84
2023-04-02T11:44:31.457Z,97959.28
2023-04-02T11:46:32.853Z,97965.78
2023-04-02T11:48:36.207Z,97964.06
2023-04-02T11:50:37.642Z,97971.38
2023-04-02T11:52:39.217Z,97968.31
2023-04-02T11:54:40.603Z,97978.75
2023-04-02T11:56:41.907Z,97861.41
2023-04-02T11:58:43.242Z,97981.66
2023-04-02T12:00:44.547Z,97984.38
2023-04-02T12:02:46.005Z,97983.66
2023-04-02T12:04:47.495Z,97985.53
2023-04-02T12:06:48.834Z,97994.13
2023-04-02T12:08:57.540Z,97992.53
2023-04-02T12:10:59.641Z,97993.50
2023-04-02T12:13:01.249Z,98007.22
2023-04-02T12:15:02.592Z,98000.47
2023-04-02T12:17:05.458Z,98008.84
2023-04-02T12:19:08.473Z,98013.78
2023-04-02T12:21:09.779Z,98017.03
2023-04-02T12:23:11.077Z,98017.69
2023-04-02T12:25:13.052Z,98021.66
2023-04-02T12:27:15.355Z,98019.63
2023-04-02T12:29:17.028Z,98021.88
2023-04-02T12:31:18.555Z,98020.69
2023-04-02T12:33:20.011Z,98018.75
2023-04-02T12:35:21.610Z,98033.88
2023-04-02T12:37:22.934Z,98032.88
2023-04-02T12:39:26.689Z,98026.75
2023-04-02T12:41:30.890Z,98034.31
2023-04-02T12:43:32.189Z,98038.47
2023-04-02T12:45:33.893Z,98034.97
2023-04-02T12:47:35.423Z,98037.50
2023-04-02T12:49:37.052Z,98043.44
2023-04-02T12:51:38.448Z,98045.94
2023-04-02T12:53:39.739Z,98042.63
2023-04-02T12:55:41.073Z,98045.22
2023-04-02T12:57:45.372Z,98053.03
2023-04-02T12:59:46.664Z,98053.22
2023-04-02T13:01:47.972Z,98055.13
2023-04-02T13:03:49.363Z,98057.91
2023-04-02T13:05:53.659Z,98053.00
2023-04-02T13:07:55.001Z,98065.13
2023-04-02T13:09:56.313Z,98066.16
2023-04-02T13:11:57.651Z,98071.50
2023-04-02T13:13:58.996Z,98075.88
2023-04-02T13:16:03.316Z,98081.09
2023-04-02T13:18:04.699Z,98082.06
2023-04-02T13:20:06.204Z,98081.34
2023-04-02T13:22:07.500Z,98086.59
2023-04-02T13:24:11.628Z,98084.94
2023-04-02T13:26:12.987Z,98073.13
2023-04-02T13:28:14.311Z,98079.13
2023-04-02T13:30:16.009Z,98083.47
2023-04-02T13:32:17.571Z,98085.25
2023-04-02T13:34:18.998Z,98087.88
2023-04-02T13:36:20.673Z,98084.56
2023-04-02T13:38:22.352Z,98087.16
2023-04-02T13:40:23.727Z,98088.03
2023-04-02T13:42:25.067Z,98085.53
2023-04-02T13:44:26.394Z,98095.78
2023-04-02T13:46:27.730Z,98096.63
2023-04-02T13:48:29.072Z,98097.47
2023-04-02T13:50:30.440Z,98104.56
2023-04-02T13:52:31.771Z,98096.44
2023-04-02T13:54:34.946Z,98097.88
2023-04-02T13:56:37.170Z,98092.78
2023-04-02T13:58:38.555Z,98100.84
2023-04-02T14:00:39.875Z,98094.13
2023-04-02T14:02:43.626Z,98103.03
2023-04-02T14:04:45.079Z,98107.31
2023-04-02T14:06:46.395Z,98102.16
2023-04-02T14:08:47.754Z,98108.50
2023-04-02T14:10:49.275Z,98111.28
2023-04-02T14:12:53.736Z,98110.19
2023-04-02T14:14:55.028Z,98110.31
2023-04-02T14:16:56.429Z,98113.19
2023-04-02T14:18:58.182Z,98118.84
2023-04-02T14:20:59.479Z,98116.25
2023-04-02T14:23:00.811Z,98125.38
2023-04-02T14:25:02.205Z,98127.16
2023-04-02T14:27:04.378Z,98127.13
2023-04-02T14:29:10.031Z,98121.19
2023-04-02T14:31:12.907Z,98131.66
2023-04-02T14:33:14.357Z,98142.84
2023-04-02T14:35:15.812Z,98135.72
2023-04-02T14:37:17.167Z,98132.69
2023-04-02T14:39:18.534Z,98137.00
2023-04-02T14:41:19.862Z,98133.72
2023-04-02T14:43:21.382Z,98139.41
2023-04-02T14:45:22.763Z,98137.47
2023-04-02T14:47:24.615Z,98135.00
2023-04-02T14:49:26.231Z,98135.84
2023-04-02T14:51:33.398Z,98142.53
2023-04-02T14:53:37.430Z,98144.00
2023-04-02T14:55:38.734Z,98150.13
2023-04-02T14:57:40.041Z,98145.56
2023-04-02T14:59:41.416Z,98149.28
2023-04-02T15:01:42.740Z,98147.88
2023-04-02T15:03:44.740Z,98148.66
2023-04-02T15:05:46.305Z,98145.28
2023-04-02T15:07:47.609Z,98140.97
2023-04-02T15:09:55.450Z,98141.28
2023-04-02T15:11:59.580Z,98143.47
2023-04-02T15:14:00.868Z,98157.38
2023-04-02T15:16:02.225Z,98164.81
2023-04-02T15:18:03.626Z,98170.13
2023-04-02T15:20:04.980Z,98160.16
2023-04-02T15:22:09.267Z,98165.03
2023-04-02T15:24:13.940Z,98171.69
2023-04-02T15:26:15.350Z,98174.94
2023-04-02T15:28:17.087Z,98177.72
2023-04-02T15:30:21.482Z,98176.94
2023-04-02T15:32:25.879Z,98177.59
2023-04-02T15:34:27.284Z,98175.03
2023-04-02T15:36:29.594Z,98188.09
2023-04-02T15:38:30.961Z,98184.63
2023-04-02T15:40:32.273Z,98188.22
2023-04-02T15:42:33.590Z,98189.47
2023-04-02T15:44:35.274Z,98193.50
2023-04-02T15:46:36.579Z,98204.28
2023-04-02T15:48:37.898Z,98201.19
2023-04-02T15:50:40.957Z,98207.75
2023-04-02T15:52:43.959Z,98205.88
2023-04-02T15:54:45.314Z,98206.03
2023-04-02T15:56:49.574Z,98206.88
2023-04-02T15:58:51.396Z,98210.72
2023-04-02T16:00:52.817Z,98214.66
2023-04-02T16:03:01.242Z,98211.84
2023-04-02T16:05:06.404Z,98213.50
2023-04-02T16:07:09.191Z,98221.50
2023-04-02T16:09:10.500Z,98219.09
2023-04-02T16:11:15.025Z,98216.13
2023-04-02T16:13:17.313Z,98222.03
2023-04-02T16:15:23.713Z,98221.41
2023-04-02T16:17:25.751Z,98221.59
2023-04-02T16:19:27.386Z,98222.47
2023-04-02T16:21:28.835Z,98232.09
2023-04-02T16:23:30.412Z,98227.78
2023-04-02T16:25:31.842Z,98235.31
2023-04-02T16:27:33.303Z,98234.41
2023-04-02T16:29:44.085Z,98239.41
2023-04-02T16:31:57.645Z,98246.00
2023-04-02T16:33:59.664Z,98241.50
2023-04-02T16:36:01.129Z,98250.72
2023-04-02T16:38:02.457Z,98247.00
2023-04-02T16:40:03.768Z,98245.25
2023-04-02T16:42:05.125Z,98253.06
2023-04-02T16:44:06.423Z,98255.69
2023-04-02T16:46:07.789Z,98262.50
2023-04-02T16:48:09.172Z,98255.47
2023-04-02T16:50:10.538Z,98281.16
2023-04-02T16:52:14.568Z,98259.72
2023-04-02T16:54:15.860Z,98266.41
2023-04-02T16:56:17.161Z,98273.25
2023-04-02T16:58:18.487Z,98274.09
2023-04-02T17:00:19.778Z,98268.97
2023-04-02T17:02:21.545Z,98276.63
2023-04-02T17:04:22.872Z,98268.00
2023-04-02T17:06:26.907Z,98273.38
2023-04-02T17:08:28.221Z,98277.88
2023-04-02T17:10:30.183Z,98279.94
2023-04-02T17:12:31.682Z,98275.09
2023-04-02T17:14:33.028Z,98283.81
2023-04-02T17:16:34.338Z,98284.91
2023-04-02T17:18:35.719Z,98284.84
2023-04-02T17:20:37.649Z,98288.31
2023-04-02T17:22:39.160Z,98296.84
2023-04-02T17:24:41.373Z,98296.00
2023-04-02T17:26:43.485Z,98302.00
2023-04-02T17:28:44.774Z,98288.38
2023-04-02T17:30:46.970Z,98290.06
2023-04-02T17:32:48.310Z,98279.03
2023-04-02T17:34:49.651Z,98290.19
2023-04-02T17:36:51.140Z,98287.66
2023-04-02T17:38:52.536Z,98295.31
2023-04-02T17:40:53.827Z,98297.88
2023-04-02T17:42:55.534Z,98308.13
2023-04-02T17:45:00.108Z,98302.16
2023-04-02T17:47:01.414Z,98299.59
2023-04-02T17:49:05.478Z,98304.69
2023-04-02T17:51:06.855Z,98315.16
2023-04-02T17:53:08.338Z,98316.09
2023-04-02T17:55:09.634Z,98316.88
2023-04-02T17:57:11.029Z,98322.78
2023-04-02T17:59:12.357Z,98322.84
2023-04-02T18:01:13.787Z,98328.00
2023-04-02T18:03:18.451Z,98326.31
2023-04-02T18:05:19.864Z,98339.16
2023-04-02T18:07:24.150Z,98338.31
2023-04-02T18:09:25.448Z,98336.59
2023-04-02T18:11:27.304Z,98336.63
2023-04-02T18:13:28.602Z,98349.50
2023-04-02T18:15:29.916Z,98351.22
2023-04-02T18:17:31.252Z,98370.03
2023-04-02T18:19:34.462Z,98352.13
2023-04-02T18:21:35.990Z,98354.75
2023-04-02T18:23:37.330Z,98365.03
2023-04-02T18:25:38.671Z,98352.28
2023-04-02T18:27:40.000Z,98358.28
2023-04-02T18:29:41.347Z,98357.50
2023-04-02T18:31:42.638Z,98358.41
2023-04-02T18:33:46.643Z,98357.56
2023-04-02T18:35:48.016Z,98365.28
2023-04-02T18:37:52.479Z,98364.50
2023-04-02T18:39:53.817Z,98373.06
2023-04-02T18:41:55.372Z,98373.22
2023-04-02T18:43:57.529Z,98377.56
2023-04-02T18:45:58.988Z,98385.44
2023-04-02T18:48:03.453Z,98380.28
2023-04-02T18:50:04.818Z,98386.56
2023-04-02T18:52:06.337Z,98373.66
2023-04-02T18:54:07.758Z,98380.81
2023-04-02T18:56:12.192Z,98380.59
2023-04-02T18:58:13.586Z,98381.19
2023-04-02T19:00:14.882Z,98386.22
2023-04-02T19:02:16.275Z,98380.16
2023-04-02T19:04:17.613Z,98385.13
2023-04-02T19:06:19.375Z,98395.34
2023-04-02T19:08:20.884Z,98395.16
2023-04-02T19:10:22.181Z,98395.44
2023-04-02T19:12:33.721Z,98396.06
2023-04-02T19:14:35.055Z,98400.41
2023-04-02T19:16:36.402Z,98402.16
2023-04-02T19:18:37.788Z,98408.56
2023-04-02T19:20:39.075Z,98406.88
2023-04-02T19:22:40.447Z,98408.53
2023-04-02T19:24:41.729Z,98402.97
2023-04-02T19:26:43.018Z,98409.53
2023-04-02T19:28:44.346Z,98415.16
2023-04-02T19:30:45.888Z,98296.16
2023-04-02T19:32:47.417Z,98418.34
2023-04-02T19:34:48.787Z,98420.72
2023-04-02T19:36:50.758Z,98423.28
2023-04-02T19:38:52.111Z,98421.69
2023-04-02T19:40:53.790Z,98424.34
2023-04-02T19:42:55.386Z,98420.66
2023-04-02T19:44:56.717Z,98423.69
2023-04-02T19:47:00.878Z,98425.75
2023-04-02T19:49:03.558Z,98426.47
2023-04-02T19:51:07.955Z,98428.69
2023-04-02T19:53:12.362Z,98430.63
2023-04-02T19:55:16.668Z,98430.81
2023-04-02T19:57:18.094Z,98424.38
2023-04-02T19:59:19.393Z,98430.31
2023-04-02T20:01:21.068Z,98427.03
2023-04-02T20:03:22.548Z,98432.16
2023-04-02T20:05:23.901Z,98433.81
2023-04-02T20:07:25.385Z,98427.03
2023-04-02T20:09:26.836Z,98432.19
2023-04-02T20:11:28.325Z,98430.56
2023-04-02T20:13:29.653Z,98432.31
2023-04-02T20:15:31.186Z,98426.56
2023-04-02T20:17:35.340Z,98432.34
2023-04-02T20:19:36.650Z,98433.88
2023-04-02T20:21:38.862Z,98433.72
2023-04-02T20:23:40.155Z,98436.31
2023-04-02T20:25:41.639Z,98438.72
2023-04-02T20:27:48.799Z,98438.44
2023-04-02T20:29:50.106Z,98433.94
2023-04-02T20:31:51.852Z,98439.16
2023-04-02T20:33:53.426Z,98439.59
2023-04-02T20:35:54.901Z,98444.22
2023-04-02T20:37:56.511Z,98444.88
2023-04-02T20:39:58.144Z,98446.81
2023-04-02T20:42:02.692Z,98445.47
2023-04-02T20:44:04.045Z,98446.03
2023-04-02T20:46:06.561Z,98451.28
2023-04-02T20:48:08.029Z,98456.03
2023-04-02T20:50:09.414Z,98468.75
2023-04-02T20:52:10.857Z,98464.88
2023-04-02T20:54:12.160Z,98466.31
2023-04-02T20:56:13.748Z,98469.59
2023-04-02T20:58:15.218Z,98464.53
2023-04-02T21:00:17.348Z,98471.34
2023-04-02T21:02:18.686Z,98468.84
2023-04-02T21:04:20.041Z,98471.41
2023-04-02T21:06:21.499Z,98476.59
2023-04-02T21:08:22.829Z,98481.91
2023-04-02T21:10:24.190Z,98484.44
2023-04-02T21:12:25.523Z,98485.19
2023-04-02T21:14:26.821Z,98485.94
2023-04-02T21:16:34.363Z,98484.22
2023-04-02T21:18:35.941Z,98485.88
2023-04-02T21:20:37.239Z,98485.13
2023-04-02T21:22:38.539Z,98486.84
2023-04-02T21:24:39.854Z,98495.47
2023-04-02T21:26:41.307Z,98492.09
2023-04-02T21:28:42.626Z,98496.38
2023-04-02T21:30:43.940Z,98493.00
2023-04-02T21:32:45.292Z,98501.50
2023-04-02T21:34:46.610Z,98498.13
2023-04-02T21:36:47.950Z,98499.03
2023-04-02T21:38:49.256Z,98501.63
2023-04-02T21:40:50.714Z,98505.91
2023-04-02T21:42:52.113Z,98504.25
2023-04-02T21:44:53.532Z,98504.25
2023-04-02T21:46:54.958Z,98510.25
2023-04-02T21:48:56.443Z,98511.16
2023-04-02T21:50:57.752Z,98510.31
2023-04-02T21:52:59.046Z,98503.50
2023-04-02T21:55:00.475Z,98512.06
2023-04-02T21:57:01.796Z,98509.53
2023-04-02T21:59:03.205Z,98512.13
2023-04-02T22:01:07.122Z,98513.03
2023-04-02T22:03:11.882Z,98516.41
2023-04-02T22:05:17.123Z,98522.41
2023-04-02T22:07:18.434Z,98526.66
2023-04-02T22:09:19.759Z,98520.75
2023-04-02T22:11:21.278Z,98521.69
2023-04-02T22:13:22.690Z,98524.16
2023-04-02T22:15:24.000Z,98527.56
2023-04-02T22:17:25.419Z,98532.63
2023-04-02T22:19:26.725Z,98541.97
2023-04-02T22:21:28.111Z,98541.06
2023-04-02T22:23:29.456Z,98547.03
2023-04-02T22:25:30.822Z,98547.88
2023-04-02T22:27:32.134Z,98560.63
2023-04-02T22:29:33.774Z,98555.53
2023-04-02T22:31:35.500Z,98559.78
2023-04-02T22:33:37.117Z,98564.94
2023-04-02T22:35:38.457Z,98581.06
2023-04-02T22:37:39.788Z,98575.94
2023-04-02T22:39:41.299Z,98582.81
2023-04-02T22:41:42.630Z,98588.72
2023-04-02T22:43:44.066Z,98584.41
2023-04-02T22:45:45.424Z,98586.88
2023-04-02T22:47:46.923Z,98597.91
2023-04-02T22:49:48.306Z,98588.59
2023-04-02T22:51:49.645Z,98598.81
2023-04-02T22:53:51.058Z,98594.66
2023-04-02T22:55:52.805Z,98594.66
2023-04-02T22:57:54.099Z,98604.94
2023-04-02T22:59:55.392Z,98607.47
2023-04-02T23:01:56.747Z,98600.66
2023-04-02T23:03:58.090Z,98606.66
2023-04-02T23:05:59.439Z,98616.03
2023-04-02T23:08:01.022Z,98617.72
2023-04-02T23:10:03.904Z,98618.53
2023-04-02T23:12:06.047Z,98616.78
2023-04-02T23:14:07.347Z,98617.53
2023-04-02T23:16:08.731Z,98622.69
2023-04-02T23:18:10.074Z,98622.69
2023-04-02T23:20:11.380Z,98621.00
2023-04-02T23:22:12.671Z,98629.47
2023-04-02T23:24:14.033Z,98629.53
2023-04-02T23:26:15.508Z,98622.72
2023-04-02T23:28:16.826Z,98632.13
2023-04-02T23:30:18.165Z,98627.34
2023-04-02T23:32:19.697Z,98629.81
2023-04-02T23:34:21.252Z,98630.69
2023-04-02T23:36:22.588Z,98630.84
2023-04-02T23:38:23.926Z,98633.47
2023-04-02T23:40:25.278Z,98635.22
2023-04-02T23:42:27.288Z,98632.66
2023-04-02T23:44:29.683Z,98638.69
2023-04-02T23:46:31.041Z,98635.31
2023-04-02T23:48:32.411Z,98641.44
2023-04-02T23:50:33.840Z,98633.53
2023-04-02T23:52:35.261Z,98644.94